Flight Track Log - Related Links

Times and Time Zones

All times are in EDT time to prevent confusion due to time zone crossing. See the UAL33 flight status page for this flight to view local times or setup timezone preferences in your user account.

Time Position Orientation Groundspeed Altitude Reporting Facility
EDT Latitude Longitude Course Direction KTS MPH feet Rate Location/Type
Wed 05:22:56 PM 29.9778 -95.3026 86° East 171 197 1,200  Level FlightAware ADS-B
Wed 05:23:00 PM 29.9783 -95.2986 82° East 173 199 1,400 2,667 Climbing FlightAware ADS-B
Wed 05:23:05 PM 29.9794 -95.2949 71° East 174 200 1,600 3,000 Climbing FlightAware ADS-B
Wed 05:23:08 PM 29.9808 -95.2918 62° Northeast 173 199 1,800 3,429 Climbing FlightAware ADS-B
Wed 05:23:12 PM 29.9827 -95.2890 52° Northeast 176 203 2,000 1,800 Climbing FlightAware ADS-B
Wed 05:23:28 PM 29.9947 -95.2822 26° Northeast 192 221 2,400 1,364 Climbing FlightAware ADS-B
Wed 05:23:34 PM 30.0005 -95.2818 North 210 242 2,500 923 Climbing FlightAware ADS-B
Wed 05:23:41 PM 30.0077 -95.2831 351° North 228 262 2,600 1,000 Climbing FlightAware ADS-B
Wed 05:23:46 PM 30.0132 -95.2849 344° North 239 275 2,700 2,100 Climbing FlightAware ADS-B
Wed 05:24:01 PM 30.0298 -95.2914 341° North 250 288 3,300 2,049 Climbing FlightAware ADS-B
Wed 05:24:27 PM 30.0585 -95.3027 341° North 270 311 4,100 1,455 Climbing FlightAware ADS-B
Wed 05:24:34 PM 30.0674 -95.3069 338° Northwest 273 314 4,100  Level FlightAware ADS-B
Wed 05:25:04 PM 30.0992 -95.3299 326° Northwest 276 318 4,100 400 Level FlightAware ADS-B
Wed 05:25:34 PM 30.1323 -95.3547 327° Northwest 278 320 4,500 1,787 Climbing FlightAware ADS-B
Wed 05:25:51 PM 30.1506 -95.3680 328° Northwest 280 322 5,500 4,059 Climbing FlightAware ADS-B
Wed 05:26:08 PM 30.1690 -95.3817 327° Northwest 282 325 6,800 4,182 Climbing FlightAware ADS-B
Wed 05:26:24 PM 30.1871 -95.3951 327° Northwest 289 333 7,800 3,677 Climbing FlightAware ADS-B
Wed 05:27:10 PM 30.2389 -95.4327 328° Northwest 301 346 10,600 3,330 Climbing FlightAware ADS-B
Wed 05:29:44 PM 30.4445 -95.5845 328° Northwest 358 412 18,900 3,160 Climbing FlightAware ADS-B
Wed 05:30:18 PM 30.4917 -95.6197 327° Northwest 367 422 20,500 2,830 Climbing FlightAware ADS-B
Wed 05:30:37 PM 30.5190 -95.6398 328° Northwest 371 427 21,400 2,684 Climbing FlightAware ADS-B
Wed 05:30:56 PM 30.5486 -95.6589 331° Northwest 376 433 22,200 1,920 Climbing FlightAware ADS-B
Wed 05:31:27 PM 30.5976 -95.6855 335° Northwest 379 436 23,000 774 Climbing FlightAware ADS-B
Wed 05:31:58 PM 30.6470 -95.7118 335° Northwest 381 438 23,000  Level FlightAware ADS-B
Wed 05:32:29 PM 30.6974 -95.7385 336° Northwest 380 437 23,000  Level FlightAware ADS-B
Wed 05:33:01 PM 30.7473 -95.7652 335° Northwest 381 438 23,000  Level FlightAware ADS-B
Wed 05:33:31 PM 30.7964 -95.7916 335° Northwest 381 438 23,000 577 Level FlightAware ADS-B
Wed 05:35:37 PM 30.9976 -95.8999 335° Northwest 387 445 24,500 1,330 Climbing FlightAware ADS-B
Wed 05:36:36 PM 31.0955 -95.9525 335° Northwest 396 456 27,100 2,426 Climbing FlightAware ADS-B
Wed 05:37:11 PM 31.1570 -95.9756 344° North 406 467 28,300 1,909 Climbing FlightAware ADS-B
Wed 05:37:42 PM 31.2152 -95.9889 349° North 416 479 29,200 1,810 Climbing FlightAware ADS-B
Wed 05:38:14 PM 31.2758 -96.0031 349° North 426 490 30,200 2,551 Climbing FlightAware ADS-B
Wed 05:39:49 PM 31.4598 -96.0254 355° North 402 463 34,600 2,372 Climbing FlightAware ADS-B
Wed 05:40:23 PM 31.5236 -96.0318 355° North 403 464 35,300 651 Climbing FlightAware ADS-B
Wed 05:42:44 PM 31.8093 -96.0599 355° North 471 542 36,500 526 Climbing FlightAware ADS-B
Wed 05:43:14 PM 31.8761 -96.0665 355° North 481 554 36,800 575 Climbing FlightAware ADS-B
Wed 05:43:57 PM 31.9724 -96.0761 355° North 491 565 37,200 880 Climbing FlightAware ADS-B
Wed 05:44:29 PM 32.0450 -96.0831 355° North 496 571 37,900 1,313 Climbing FlightAware ADS-B
Wed 05:45:01 PM 32.1180 -96.0900 355° North 492 566 38,600 1,385 Climbing FlightAware ADS-B
Wed 05:45:08 PM 32.1362 -96.0922 354° North 496 571 38,800 1,171 Climbing FlightAware ADS-B
Wed 05:45:42 PM 32.2130 -96.1000 355° North 492 566 39,400 864 Climbing FlightAware ADS-B
Wed 05:47:06 PM 32.4030 -96.1190 355° North 489 563 40,500 575 Climbing FlightAware ADS-B
Wed 05:48:29 PM 32.5880 -96.1380 355° North 481 554 41,000 234 Climbing FlightAware ADS-B
Wed 05:49:14 PM 32.6890 -96.1480 355° North 478 550 41,000  Level FlightAware ADS-B
Wed 05:49:55 PM 32.7780 -96.1570 355° North 480 552 41,000  Level FlightAware ADS-B
Wed 05:50:59 PM 32.9180 -96.1710 355° North 484 557 41,000  Level FlightAware ADS-B
Wed 05:51:41 PM 33.0130 -96.1810 355° North 485 558 41,000  Level FlightAware ADS-B
Wed 05:52:22 PM 33.1070 -96.1900 355° North 485 558 41,000  Level FlightAware ADS-B
Wed 05:53:02 PM 33.1950 -96.1990 355° North 483 556 41,000  Level FlightAware ADS-B
Wed 05:53:46 PM 33.2940 -96.2090 355° North 483 556 41,000  Level FlightAware ADS-B
Wed 05:54:28 PM 33.3880 -96.2190 355° North 486 559 41,000  Level FlightAware ADS-B
Wed 05:55:04 PM 33.4680 -96.2270 355° North 486 559 41,000  Level FlightAware ADS-B
Wed 05:55:52 PM 33.5780 -96.2200 North 502 578 41,000  Level FlightAware ADS-B
Wed 05:56:32 PM 33.6650 -96.1910 16° North 506 582 41,000  Level FlightAware ADS-B
Wed 05:57:16 PM 33.7670 -96.1560 16° North 507 583 41,000  Level FlightAware ADS-B
Wed 05:57:57 PM 33.8570 -96.1190 19° North 514 592 41,000  Level FlightAware ADS-B
Wed 05:58:38 PM 33.9450 -96.0580 30° Northeast 523 602 41,000  Level FlightAware ADS-B
Wed 05:59:19 PM 34.0250 -95.9940 34° Northeast 524 603 41,000  Level FlightAware ADS-B
Wed 06:00:00 PM 34.1100 -95.9260 34° Northeast 523 602 41,000  Level FlightAware ADS-B
Wed 06:00:48 PM 34.2050 -95.8510 33° Northeast 521 600 41,000  Level FlightAware ADS-B
Wed 06:01:25 PM 34.2790 -95.7920 33° Northeast 523 602 41,000  Level FlightAware ADS-B
Wed 06:02:06 PM 34.3620 -95.7250 34° Northeast 524 603 41,000  Level FlightAware ADS-B
Wed 06:02:51 PM 34.4520 -95.6540 33° Northeast 525 604 41,000  Level FlightAware ADS-B
Wed 06:03:36 PM 34.5440 -95.5800 34° Northeast 527 606 41,000  Level FlightAware ADS-B
Wed 06:04:14 PM 34.6220 -95.5170 34° Northeast 528 608 41,000  Level FlightAware ADS-B
Wed 06:04:53 PM 34.7020 -95.4530 33° Northeast 528 608 41,000  Level FlightAware ADS-B
Wed 06:05:48 PM 34.7930 -95.3830 32° Northeast 526 605 41,000  Level FlightAware ADS-B
Wed 06:06:36 PM 34.8770 -95.3180 32° Northeast 526 605 41,000  Level FlightAware ADS-B
Wed 06:07:31 PM 35.0290 -95.2010 32° Northeast 532 612 41,000  Level FlightAware ADS-B
Wed 06:08:14 PM 35.1190 -95.1320 32° Northeast 532 612 41,000  Level FlightAware ADS-B
Wed 06:08:53 PM 35.1880 -95.0790 32° Northeast 532 612 41,000  Level FlightAware ADS-B
Wed 06:09:34 PM 35.2850 -95.0020 33° Northeast 532 612 41,000  Level FlightAware ADS-B
Wed 06:10:20 PM 35.3730 -94.9330 33° Northeast 533 613 41,000  Level FlightAware ADS-B
Wed 06:10:56 PM 35.4550 -94.8690 32° Northeast 533 613 41,000  Level FlightAware ADS-B
Wed 06:11:39 PM 35.5430 -94.8000 33° Northeast 533 613 41,000  Level FlightAware ADS-B
Wed 06:12:19 PM 35.6280 -94.7340 32° Northeast 533 613 41,000  Level FlightAware ADS-B
Wed 06:13:00 PM 35.7150 -94.6650 33° Northeast 535 616 41,000  Level FlightAware ADS-B
Wed 06:13:43 PM 35.8020 -94.5950 33° Northeast 536 617 41,000  Level FlightAware ADS-B
Wed 06:14:24 PM 35.8890 -94.5270 32° Northeast 538 619 41,000  Level FlightAware ADS-B
Wed 06:15:07 PM 35.9780 -94.4560 33° Northeast 538 619 41,000  Level FlightAware ADS-B
Wed 06:15:47 PM 36.0620 -94.3890 33° Northeast 537 618 41,000  Level FlightAware ADS-B
Wed 06:16:30 PM 36.1520 -94.3170 33° Northeast 536 617 41,000  Level FlightAware ADS-B
Wed 06:17:10 PM 36.2360 -94.2500 33° Northeast 536 617 41,000  Level FlightAware ADS-B
Wed 06:17:54 PM 36.3280 -94.1760 33° Northeast 536 617 41,000  Level FlightAware ADS-B
Wed 06:18:39 PM 36.4200 -94.1020 33° Northeast 535 616 41,000  Level FlightAware ADS-B
Wed 06:19:19 PM 36.5020 -94.0350 33° Northeast 534 615 41,000  Level FlightAware ADS-B
Wed 06:20:00 PM 36.5880 -93.9660 33° Northeast 536 617 41,000  Level FlightAware ADS-B
Wed 06:20:39 PM 36.6690 -93.9000 33° Northeast 538 619 41,000  Level FlightAware ADS-B
Wed 06:21:24 PM 36.7630 -93.8230 33° Northeast 537 618 41,000  Level FlightAware ADS-B
Wed 06:22:08 PM 36.8550 -93.7480 33° Northeast 538 619 41,000  Level FlightAware ADS-B
Wed 06:22:48 PM 36.9380 -93.6800 33° Northeast 537 618 41,000  Level FlightAware ADS-B
Wed 06:23:28 PM 37.0210 -93.6110 34° Northeast 536 617 41,000  Level FlightAware ADS-B
Wed 06:24:13 PM 37.1130 -93.5350 33° Northeast 535 616 41,000  Level FlightAware ADS-B
Wed 06:24:57 PM 37.2030 -93.4610 33° Northeast 535 616 41,000  Level FlightAware ADS-B
Wed 06:25:50 PM 37.3140 -93.3690 33° Northeast 536 617 41,000  Level FlightAware ADS-B
Wed 06:26:29 PM 37.3940 -93.3010 34° Northeast 538 619 41,000  Level FlightAware ADS-B
Wed 06:27:16 PM 37.4890 -93.2120 37° Northeast 539 620 41,000  Level FlightAware ADS-B
Wed 06:27:57 PM 37.5690 -93.1370 37° Northeast 538 619 41,000  Level FlightAware ADS-B
Wed 06:28:39 PM 37.6540 -93.0580 36° Northeast 537 618 41,000  Level FlightAware ADS-B
Wed 06:29:20 PM 37.7340 -92.9840 36° Northeast 539 620 41,000  Level FlightAware ADS-B
Wed 06:29:59 PM 37.8140 -92.9090 37° Northeast 539 620 41,000  Level FlightAware ADS-B
Wed 06:30:45 PM 37.9050 -92.8240 36° Northeast 538 619 41,000  Level FlightAware ADS-B
Wed 06:31:26 PM 37.9870 -92.7480 36° Northeast 539 620 41,000  Level FlightAware ADS-B
Wed 06:32:02 PM 38.0570 -92.6820 37° Northeast 536 617 41,000  Level FlightAware ADS-B
Wed 06:32:51 PM 38.1570 -92.5870 37° Northeast 537 618 41,000  Level FlightAware ADS-B
Wed 06:33:32 PM 38.2390 -92.5100 36° Northeast 534 615 41,000  Level FlightAware ADS-B
Wed 06:34:08 PM 38.3070 -92.4460 36° Northeast 534 615 41,000  Level FlightAware ADS-B
Wed 06:34:51 PM 38.3800 -92.3780 36° Northeast 534 615 41,000  Level FlightAware ADS-B
Wed 06:35:40 PM 38.4630 -92.3010 36° Northeast 534 615 41,000  Level FlightAware ADS-B
Wed 06:36:20 PM 38.5720 -92.1920 38° Northeast 539 620 41,000  Level FlightAware ADS-B
Wed 06:37:01 PM 38.6420 -92.1270 36° Northeast 539 620 41,000  Level FlightAware ADS-B
Wed 06:37:45 PM 38.7340 -92.0370 37° Northeast 540 621 41,000  Level FlightAware ADS-B
Wed 06:38:21 PM 38.7950 -91.9780 37° Northeast 540 621 41,000  Level FlightAware ADS-B
Wed 06:39:08 PM 38.9060 -91.8700 37° Northeast 541 623 41,000  Level FlightAware ADS-B
Wed 06:39:50 PM 38.9810 -91.7980 37° Northeast 541 623 41,000  Level FlightAware ADS-B
Wed 06:40:43 PM 39.0980 -91.6830 37° Northeast 543 625 41,000  Level FlightAware ADS-B
Wed 06:41:24 PM 39.1680 -91.6150 37° Northeast 543 625 41,000  Level FlightAware ADS-B
Wed 06:42:10 PM 39.2680 -91.5170 37° Northeast 542 624 41,000  Level FlightAware ADS-B
Wed 06:42:46 PM 39.3420 -91.4440 37° Northeast 540 621 41,000  Level FlightAware ADS-B
Wed 06:43:35 PM 39.4400 -91.3480 37° Northeast 537 618 41,000  Level FlightAware ADS-B
Wed 06:44:18 PM 39.5230 -91.2650 38° Northeast 538 619 41,000  Level FlightAware ADS-B
Wed 06:44:57 PM 39.6000 -91.1880 38° Northeast 539 620 41,000  Level FlightAware ADS-B
Wed 06:45:41 PM 39.6880 -91.1010 37° Northeast 541 623 41,000  Level FlightAware ADS-B
Wed 06:46:21 PM 39.7670 -91.0220 38° Northeast 541 623 41,000 -71 Level FlightAware ADS-B
Wed 06:47:06 PM 39.8540 -90.9340 38° Northeast 540 621 40,900 -600 Descending FlightAware ADS-B
Wed 06:47:41 PM 39.9130 -90.8750 37° Northeast 537 618 40,200 -2,071 Descending FlightAware ADS-B
Wed 06:48:30 PM 40.0210 -90.7650 38° Northeast 538 619 38,000 -2,630 Descending FlightAware ADS-B
Wed 06:48:54 PM 40.0680 -90.7180 37° Northeast 540 621 37,000 -2,507 Descending FlightAware ADS-B
Wed 06:49:37 PM 40.1530 -90.6330 37° Northeast 545 627 35,200 -2,541 Descending FlightAware ADS-B
Wed 06:50:19 PM 40.2380 -90.5450 38° Northeast 549 632 33,400 -1,610 Descending FlightAware ADS-B
Wed 06:50:59 PM 40.3170 -90.4650 38° Northeast 545 627 33,000 -286 Descending FlightAware ADS-B
Wed 06:51:43 PM 40.4050 -90.3750 38° Northeast 544 626 33,000 -1,348 Level FlightAware ADS-B
Wed 06:52:28 PM 40.4950 -90.2820 38° Northeast 548 631 31,000 -2,259 Descending FlightAware ADS-B
Wed 06:53:08 PM 40.5730 -90.2010 38° Northeast 548 631 29,800 -1,500 Descending FlightAware ADS-B
Wed 06:53:52 PM 40.6620 -90.1090 38° Northeast 543 625 28,900 -1,157 Descending FlightAware ADS-B
Wed 06:54:31 PM 40.7340 -90.0340 38° Northeast 546 628 28,200 -1,169 Descending FlightAware ADS-B
Wed 06:55:09 PM 40.8140 -89.9510 38° Northeast 547 629 27,400 -1,200 Descending FlightAware ADS-B
Wed 06:55:56 PM 40.9040 -89.8570 38° Northeast 535 616 26,500 -1,133 Descending FlightAware ADS-B
Wed 06:56:39 PM 40.9870 -89.7700 38° Northeast 523 602 25,700 -1,071 Descending FlightAware ADS-B
Wed 06:57:20 PM 41.0590 -89.6950 38° Northeast 518 596 25,000 -1,111 Descending FlightAware ADS-B
Wed 06:58:00 PM 41.1380 -89.6060 40° Northeast 514 592 24,200 -1,624 Descending FlightAware ADS-B
Wed 06:58:45 PM 41.1970 -89.4960 54° Northeast 505 581 22,700 -2,259 Descending FlightAware ADS-B
Wed 06:59:25 PM 41.2420 -89.3850 62° Northeast 501 577 21,000 -2,132 Descending FlightAware ADS-B
Wed 07:00:01 PM 41.2800 -89.2920 61° Northeast 487 560 20,000 -1,906 Descending FlightAware ADS-B
Wed 07:00:50 PM 41.3320 -89.1610 62° Northeast 471 542 18,300 -2,200 Descending FlightAware ADS-B
Wed 07:01:31 PM 41.3720 -89.0610 62° Northeast 466 536 16,700 -2,400 Descending FlightAware ADS-B
Wed 07:02:15 PM 41.4160 -88.9500 62° Northeast 445 512 14,900 -2,571 Descending FlightAware ADS-B
Wed 07:02:55 PM 41.4550 -88.8540 62° Northeast 433 498 13,100 -2,400 Descending FlightAware ADS-B
Wed 07:03:35 PM 41.4910 -88.7620 62° Northeast 415 478 11,700 -1,412 Descending FlightAware ADS-B
Wed 07:04:20 PM 41.5300 -88.6640 62° Northeast 368 423 11,100 -477 Descending FlightAware ADS-B
Wed 07:05:03 PM 41.5610 -88.5840 63° Northeast 318 366 11,000 -69 Descending FlightAware ADS-B
Wed 07:05:47 PM 41.5910 -88.5080 62° Northeast 311 358 11,000 -494 Level FlightAware ADS-B
Wed 07:06:28 PM 41.6220 -88.4440 57° Northeast 303 349 10,300 -822 Descending FlightAware ADS-B
Wed 07:07:00 PM 41.6510 -88.3970 50° Northeast 299 344 10,000 -453 Descending FlightAware ADS-B
Wed 07:07:21 PM 41.6790 -88.3810 23° Northeast 297 342 9,900  Descending FlightAware ADS-B
Wed 07:07:33 PM 41.6930 -88.3730 23° Northeast 294 338 10,000 -955 Climbing FlightAware ADS-B
Wed 07:08:05 PM 41.7360 -88.3530 19° North 302 348 9,200 -1,322 Descending FlightAware ADS-B
Wed 07:08:32 PM 41.7680 -88.3380 19° North 275 316 8,700 -1,091 Descending FlightAware ADS-B
Wed 07:09:00 PM 41.8010 -88.3230 19° North 241 277 8,200 -873 Descending FlightAware ADS-B
Wed 07:09:27 PM 41.8290 -88.3160 11° North 223 257 7,900 -977 Descending FlightAware ADS-B
Wed 07:09:43 PM 41.8450 -88.3150 North 222 255 7,500 -1,600 Descending FlightAware ADS-B
Wed 07:10:12 PM 41.8740 -88.3160 359° North 225 259 6,700 -1,902 Descending FlightAware ADS-B
Wed 07:10:24 PM 41.8870 -88.3170 357° North 230 265 6,200 -2,100 Descending FlightAware ADS-B
Wed 07:10:52 PM 41.9180 -88.3190 357° North 239 275 5,300 -1,895 Descending FlightAware ADS-B
Wed 07:11:02 PM 41.9290 -88.3200 356° North 240 276 5,000 -1,304 Descending FlightAware ADS-B
Wed 07:11:38 PM 41.9640 -88.3060 17° North 233 268 4,300 -1,125 Descending FlightAware ADS-B
Wed 07:11:50 PM 41.9690 -88.2890 68° East 225 259 4,100 -429 Descending FlightAware ADS-B
Wed 07:12:20 PM 41.9680 -88.2480 92° East 222 255 4,000 -109 Descending FlightAware ADS-B
Wed 07:12:45 PM 41.9680 -88.2120 90° East 224 258 4,000  Level FlightAware ADS-B
Wed 07:13:14 PM 41.9680 -88.1740 90° East 207 238 4,000 -316 Level FlightAware ADS-B
Wed 07:13:42 PM 41.9680 -88.1420 90° East 191 220 3,700 -840 Descending FlightAware ADS-B
Wed 07:14:04 PM 41.9680 -88.1140 90° East 176 203 3,300 -971 Descending FlightAware ADS-B
Wed 07:14:50 PM 41.9690 -88.0670 88° East 165 190 2,600 -892 Descending FlightAware ADS-B
Wed 07:15:18 PM 41.9690 -88.0420 90° East 162 186 2,200 -857 Descending FlightAware ADS-B
Wed 07:15:46 PM 41.9690 -88.0140 90° East 131 151 1,800 -737 Descending FlightAware ADS-B
Wed 07:16:15 PM 41.9690 -87.9910 90° East 129 148 1,500 -545 Descending FlightAware ADS-B
Wed 07:16:30 PM 41.9690 -87.9790 90° East 132 152 1,400 -632 Descending FlightAware ADS-B
Wed 07:17:12 PM 41.9690 -87.9460 90° East 139 160 900 -750 Descending FlightAware ADS-B
Wed 07:17:26 PM 41.9690 -87.9310 90° East 137 158 700 -857 Descending FlightAware ADS-B

Login

Don't have an account? Register now (free) for customized features, flight alerts, and more!